Time;durP1;ratioP1;P1;durP2;ratioP2;P2;SDS_P1;SDS_P2;PMS_P1;PMS_P2;Temp;Humidity;BMP_temperature;BMP_pressure;BME280_temperature;BME280_humidity;BME280_pressure;Samples;Min_cycle;Max_cycle;Signal;HPM_P1;HPM_P2
2021/12/25 00:00:41;;;;;;;7.05;4.30;;;;;;;6.94;71.84;98457.09;4198756;34;33850;-91
2021/12/25 00:03:10;;;;;;;8.30;4.78;;;;;;;6.89;71.93;98470.06;4197064;34;34574;-90
2021/12/25 00:05:39;;;;;;;11.32;6.93;;;;;;;6.53;73.11;98468.97;4193209;34;33408;-91
2021/12/25 00:08:07;;;;;;;8.82;4.80;;;;;;;6.55;72.98;98480.94;4197599;34;34001;-91
2021/12/25 00:10:36;;;;;;;10.43;6.70;;;;;;;6.78;71.87;98466.81;4192467;34;34136;-91
2021/12/25 00:13:06;;;;;;;7.37;4.87;;;;;;;6.67;71.98;98466.12;4194041;34;33959;-90
2021/12/25 00:15:35;;;;;;;8.25;4.35;;;;;;;6.53;72.30;98463.81;4196944;34;36016;-90
2021/12/25 00:18:05;;;;;;;6.78;4.28;;;;;;;6.67;71.90;98469.59;4195384;34;33341;-90
2021/12/25 00:20:34;;;;;;;8.18;4.45;;;;;;;6.60;72.06;98470.56;4188782;34;33664;-91
2021/12/25 00:23:05;;;;;;;8.38;4.78;;;;;;;6.52;72.39;98474.97;4201386;34;34061;-89
2021/12/25 00:25:39;;;;;;;9.90;5.80;;;;;;;6.61;71.75;98487.72;4207561;34;33663;-90
2021/12/25 00:28:22;;;;;;;9.80;5.55;;;;;;;6.80;71.44;98472.78;4196733;34;33326;-91
2021/12/25 00:31:05;;;;;;;9.32;5.87;;;;;;;6.74;71.85;98478.03;4200393;34;34459;-90
2021/12/25 00:33:50;;;;;;;10.43;5.28;;;;;;;6.63;72.51;98473.94;4207388;34;34069;-89
2021/12/25 00:36:23;;;;;;;9.38;4.43;;;;;;;6.63;72.78;98479.09;4202888;34;33682;-91
2021/12/25 00:38:53;;;;;;;6.78;4.53;;;;;;;6.69;72.65;98477.28;4197187;34;33513;-91
2021/12/25 00:41:25;;;;;;;7.35;4.65;;;;;;;6.81;72.10;98482.22;4199167;34;33908;-89
2021/12/25 00:43:55;;;;;;;4.68;4.00;;;;;;;6.92;71.99;98484.63;4196773;34;34936;-91
2021/12/25 00:46:24;;;;;;;6.68;3.97;;;;;;;7.01;72.49;98490.47;4209203;34;33292;-90
2021/12/25 00:48:53;;;;;;;10.45;5.62;;;;;;;6.89;72.97;98482.09;4196887;34;34239;-91
2021/12/25 00:51:22;;;;;;;8.48;4.72;;;;;;;6.79;73.34;98489.12;4196422;34;33755;-89
2021/12/25 00:53:51;;;;;;;7.55;4.75;;;;;;;6.76;73.36;98486.59;4197540;34;34016;-90
2021/12/25 00:56:20;;;;;;;7.20;3.97;;;;;;;6.83;72.92;98493.34;4195207;34;34706;-89
2021/12/25 00:58:48;;;;;;;7.37;4.35;;;;;;;7.05;72.26;98492.13;4192930;34;32922;-90
2021/12/25 01:01:19;;;;;;;7.50;4.47;;;;;;;6.84;73.13;98489.91;4204340;34;33617;-90
2021/12/25 01:03:48;;;;;;;6.62;3.90;;;;;;;6.86;73.14;98492.44;4194236;34;34024;-90
2021/12/25 01:06:18;;;;;;;10.25;4.75;;;;;;;6.95;72.59;98490.56;4197091;34;34757;-90
2021/12/25 01:08:51;;;;;;;;;;;;;;;6.86;72.96;98495.88;4194512;34;33788;-89
2021/12/25 01:11:24;;;;;;;6.62;4.37;;;;;;;7.02;72.37;98497.31;4187363;34;33959;-90
2021/12/25 01:13:59;;;;;;;5.47;3.50;;;;;;;6.97;72.63;98504.28;4194464;34;34118;-89
2021/12/25 01:17:02;;;;;;;6.37;4.05;;;;;;;6.88;72.92;98501.00;4200543;34;33688;-89
2021/12/25 01:20:08;;;;;;;8.48;3.92;;;;;;;6.92;72.85;98500.09;4200845;34;34331;-90
2021/12/25 01:31:23;;;;;;;7.35;4.57;;;;;;;7.05;72.93;98515.34;4195753;34;33147;-88
2021/12/25 01:34:19;;;;;;;5.97;3.55;;;;;;;6.98;73.05;98516.31;4202059;34;34660;-88
2021/12/25 01:37:00;;;;;;;6.70;4.40;;;;;;;6.93;73.12;98514.69;4197783;34;33875;-88
2021/12/25 01:39:48;;;;;;;6.45;3.50;;;;;;;6.90;72.88;98528.47;4202383;34;33506;-90
2021/12/25 01:47:52;;;;;;;6.25;3.90;;;;;;;7.33;71.88;98524.28;4203744;34;35006;-88
2021/12/25 01:50:25;;;;;;;5.85;3.55;;;;;;;7.09;72.88;98534.16;4209627;34;33798;-89
2021/12/25 01:52:57;;;;;;;6.07;3.90;;;;;;;7.07;72.78;98527.34;4200515;34;33290;-89
2021/12/25 01:55:29;;;;;;;8.05;4.47;;;;;;;7.10;72.90;98535.84;4199484;34;34821;-90
2021/12/25 01:57:59;;;;;;;;;;;;;;;7.17;72.46;98534.03;4200068;34;34226;-90
2021/12/25 02:00:33;;;;;;;5.43;3.70;;;;;;;7.15;72.54;98538.34;4209405;34;33906;-89
2021/12/25 02:03:02;;;;;;;7.20;4.45;;;;;;;7.18;72.32;98539.16;4198622;34;33364;-89
2021/12/25 02:05:33;;;;;;;7.12;4.03;;;;;;;7.07;72.86;98527.34;4206284;34;33589;-91
2021/12/25 02:08:22;;;;;;;7.53;3.65;;;;;;;6.98;72.91;98518.00;4202908;34;34077;-89
2021/12/25 02:10:52;;;;;;;7.05;3.95;;;;;;;7.08;72.48;98527.31;4201081;34;34083;-90
2021/12/25 02:13:22;;;;;;;6.95;4.60;;;;;;;7.10;72.41;98522.13;4207483;34;33186;-89
2021/12/25 02:15:53;;;;;;;8.90;4.47;;;;;;;7.06;72.44;98516.16;4202564;34;33502;-89
2021/12/25 02:18:27;;;;;;;8.02;4.57;;;;;;;7.14;72.29;98521.19;4203009;34;33970;-89
2021/12/25 02:21:07;;;;;;;6.05;3.72;;;;;;;7.33;71.64;98517.38;4190044;34;33430;-90
2021/12/25 02:23:37;;;;;;;8.30;4.35;;;;;;;7.25;72.05;98520.13;4196201;34;33309;-90
2021/12/25 02:26:06;;;;;;;4.87;3.75;;;;;;;7.23;71.98;98521.87;4208092;34;34801;-90
2021/12/25 02:28:36;;;;;;;9.52;4.35;;;;;;;7.46;71.80;98518.00;4206239;34;35100;-89
2021/12/25 02:31:07;;;;;;;7.70;4.15;;;;;;;7.39;71.70;98516.41;4206928;34;34037;-89
2021/12/25 02:33:38;;;;;;;6.07;3.75;;;;;;;7.27;72.12;98512.31;4213805;34;33358;-89
2021/12/25 02:36:09;;;;;;;6.97;4.22;;;;;;;7.16;72.54;98509.97;4212759;34;34158;-88
2021/12/25 02:38:39;;;;;;;8.32;3.97;;;;;;;7.13;72.61;98504.88;4209802;34;34048;-89
2021/12/25 02:41:09;;;;;;;6.50;3.67;;;;;;;7.03;72.89;98503.31;4195852;34;34415;-90
2021/12/25 02:43:38;;;;;;;8.18;4.25;;;;;;;7.31;71.98;98505.41;4204824;34;33399;-88
2021/12/25 02:46:07;;;;;;;6.45;4.47;;;;;;;7.44;71.11;98506.84;4210460;34;33666;-89
2021/12/25 02:48:37;;;;;;;6.75;3.33;;;;;;;7.30;71.69;98508.84;4202389;34;34853;-90
2021/12/25 02:51:08;;;;;;;7.00;4.32;;;;;;;7.11;72.17;98513.50;4201478;34;33809;-90
2021/12/25 02:53:38;;;;;;;7.55;4.00;;;;;;;7.10;72.03;98504.91;4202903;34;33296;-89
2021/12/25 02:56:10;;;;;;;8.00;4.90;;;;;;;7.30;70.80;98503.69;4201586;34;33689;-90
2021/12/25 02:58:39;;;;;;;7.25;4.28;;;;;;;7.04;70.98;98507.59;4204298;34;33812;-89
2021/12/25 03:01:12;;;;;;;6.85;4.18;;;;;;;7.07;71.18;98519.59;4208557;34;34131;-89
2021/12/25 03:03:42;;;;;;;8.00;5.03;;;;;;;7.14;70.98;98514.28;4204281;34;34030;-90
2021/12/25 03:06:13;;;;;;;9.13;4.30;;;;;;;7.03;70.83;98506.78;4203173;34;33712;-89
2021/12/25 03:08:42;;;;;;;8.15;3.97;;;;;;;6.84;71.29;98503.66;4198640;34;34083;-89
2021/12/25 03:11:14;;;;;;;6.20;3.40;;;;;;;6.69;71.50;98501.31;4207687;34;34673;-91
2021/12/25 03:13:55;;;;;;;7.72;3.92;;;;;;;6.62;71.71;98497.16;4209489;34;33333;-90
2021/12/25 03:16:25;;;;;;;6.40;3.83;;;;;;;6.39;71.95;98498.38;4199996;34;34566;-89
2021/12/25 03:18:56;;;;;;;5.80;3.53;;;;;;;6.44;71.36;98505.19;4202502;34;33708;-91
2021/12/25 03:21:26;;;;;;;6.82;3.37;;;;;;;6.31;71.47;98499.37;4204028;34;33595;-90
2021/12/25 03:23:55;;;;;;;6.30;3.70;;;;;;;6.48;71.02;98499.97;4199168;34;32354;-90
2021/12/25 03:26:24;;;;;;;5.53;3.47;;;;;;;6.48;70.67;98499.97;4210951;34;33874;-90
2021/12/25 03:28:53;;;;;;;5.90;3.37;;;;;;;5.92;72.06;98509.31;4207894;34;34773;-90
2021/12/25 03:31:22;;;;;;;7.07;3.60;;;;;;;6.32;70.64;98508.78;4212056;34;33890;-89
2021/12/25 03:33:54;;;;;;;6.97;3.37;;;;;;;6.41;70.18;98512.06;4210067;34;33329;-89
2021/12/25 03:36:22;;;;;;;;;;;;;;;6.27;70.52;98511.44;4207753;34;34462;-91
2021/12/25 03:38:53;;;;;;;5.80;3.67;;;;;;;6.17;70.95;98500.41;4201211;34;34319;-88
2021/12/25 03:41:22;;;;;;;5.22;3.33;;;;;;;6.12;71.13;98509.09;4211611;34;33555;-90
2021/12/25 03:43:51;;;;;;;5.35;3.17;;;;;;;6.41;71.00;98514.66;4206851;34;33111;-88
2021/12/25 03:46:20;;;;;;;5.97;3.22;;;;;;;6.09;72.30;98521.97;4211358;34;34658;-89
2021/12/25 03:49:06;;;;;;;4.93;3.20;;;;;;;6.29;71.54;98530.28;4205470;34;34885;-89
2021/12/25 04:00:04;;;;;;;5.90;4.12;;;;;;;6.11;73.05;98548.56;4196651;34;32726;-89
2021/12/25 04:02:52;;;;;;;5.72;3.22;;;;;;;6.51;72.20;98554.00;4212385;34;33909;-90
2021/12/25 04:05:26;;;;;;;8.90;3.97;;;;;;;6.44;72.51;98554.13;4203192;34;33125;-87
2021/12/25 04:08:06;;;;;;;5.97;3.60;;;;;;;6.27;73.37;98560.37;4200032;34;33249;-91
2021/12/25 04:10:41;;;;;;;5.93;3.12;;;;;;;6.44;72.73;98552.41;4200098;34;33766;-89
2021/12/25 04:13:13;;;;;;;4.25;2.70;;;;;;;6.49;72.85;98563.47;4208274;34;33881;-89
2021/12/25 04:15:43;;;;;;;6.35;3.80;;;;;;;6.40;73.25;98563.59;4204326;34;33290;-89
2021/12/25 04:18:11;;;;;;;5.03;2.72;;;;;;;6.36;73.48;98561.97;4203280;34;34355;-89
2021/12/25 04:20:41;;;;;;;5.55;2.45;;;;;;;6.86;72.09;98559.47;4205252;34;34447;-88
2021/12/25 04:23:16;;;;;;;5.22;3.60;;;;;;;6.63;72.75;98555.56;4197893;34;33290;-89
2021/12/25 04:25:46;;;;;;;5.62;3.05;;;;;;;6.62;73.01;98565.00;4199993;34;32646;-89
2021/12/25 04:28:22;;;;;;;6.03;3.47;;;;;;;6.67;72.90;98561.50;4204029;34;34077;-89
2021/12/25 04:31:08;;;;;;;5.55;3.70;;;;;;;6.56;73.51;98559.09;4211263;34;34302;-90
2021/12/25 04:48:18;;;;;;;6.10;3.22;;;;;;;6.73;73.32;98530.47;4192230;34;34006;-90
2021/12/25 05:02:01;;;;;;;6.18;3.40;;;;;;;6.79;72.00;98527.78;4212164;34;34734;-89
2021/12/25 05:04:35;;;;;;;4.78;2.85;;;;;;;6.70;72.47;98531.38;4218097;34;34095;-90
2021/12/25 05:07:06;;;;;;;4.35;3.08;;;;;;;7.01;71.19;98531.72;4203875;34;33576;-88
2021/12/25 05:09:35;;;;;;;6.20;3.25;;;;;;;6.76;71.82;98536.44;4204458;34;33390;-89
2021/12/25 05:12:04;;;;;;;4.53;3.15;;;;;;;6.81;71.57;98539.81;4205077;34;33049;-89
2021/12/25 05:14:35;;;;;;;5.87;3.55;;;;;;;6.74;71.88;98539.91;4205958;34;34502;-89
2021/12/25 05:17:05;;;;;;;6.20;3.72;;;;;;;6.56;72.33;98538.47;4210655;34;33159;-90
2021/12/25 05:19:35;;;;;;;5.37;3.30;;;;;;;6.52;72.09;98537.66;4205080;34;33475;-90
2021/12/25 05:22:04;;;;;;;5.28;3.42;;;;;;;6.49;71.98;98542.03;4194755;34;33559;-90
2021/12/25 05:24:34;;;;;;;6.43;3.95;;;;;;;6.38;71.95;98537.87;4208017;34;34087;-89
2021/12/25 05:27:03;;;;;;;4.12;3.25;;;;;;;6.51;71.47;98540.28;4200290;34;33725;-89
2021/12/25 05:29:34;;;;;;;5.05;2.90;;;;;;;6.19;72.10;98552.75;4195872;34;33325;-90
2021/12/25 05:32:05;;;;;;;6.53;3.15;;;;;;;6.26;72.01;98560.37;4203395;34;33869;-88
2021/12/25 05:34:35;;;;;;;4.05;2.83;;;;;;;6.32;71.39;98555.16;4197968;34;35122;-90
2021/12/25 05:37:04;;;;;;;5.72;3.50;;;;;;;6.30;71.12;98555.16;4208417;34;33573;-90
2021/12/25 05:39:34;;;;;;;6.95;4.15;;;;;;;6.23;71.16;98545.81;4211800;34;34389;-89
2021/12/25 05:42:03;;;;;;;5.37;3.12;;;;;;;6.25;70.90;98544.09;4213925;34;34951;-89
2021/12/25 05:44:36;;;;;;;5.87;4.25;;;;;;;6.22;70.96;98538.97;4213702;34;34964;-89
2021/12/25 05:47:06;;;;;;;5.72;3.10;;;;;;;5.97;71.79;98549.62;4213184;34;34740;-89
2021/12/25 05:49:35;;;;;;;3.70;3.00;;;;;;;6.00;71.73;98547.88;4207969;34;33343;-90
2021/12/25 05:52:06;;;;;;;7.57;3.53;;;;;;;6.02;71.56;98552.13;4203707;34;33735;-90
2021/12/25 05:54:36;;;;;;;8.48;4.05;;;;;;;6.09;71.43;98547.72;4208346;34;33835;-89
2021/12/25 05:57:05;;;;;;;5.05;3.17;;;;;;;6.09;71.02;98543.47;4195509;34;33426;-91
2021/12/25 05:59:34;;;;;;;4.68;2.87;;;;;;;6.04;71.40;98560.69;4207164;34;34208;-89
2021/12/25 06:02:06;;;;;;;4.85;3.15;;;;;;;5.88;71.74;98557.41;4207358;34;33854;-90
2021/12/25 06:04:35;;;;;;;5.25;3.30;;;;;;;5.86;72.00;98555.72;4197219;34;33831;-91
2021/12/25 06:07:04;;;;;;;4.62;3.55;;;;;;;5.81;72.00;98557.53;4183466;34;33235;-89
2021/12/25 06:09:33;;;;;;;3.87;2.62;;;;;;;6.10;70.87;98552.03;4201298;34;34284;-89
2021/12/25 06:12:10;;;;;;;4.40;3.17;;;;;;;5.73;71.55;98563.59;4198875;34;33518;-90
2021/12/25 06:14:39;;;;;;;4.62;3.15;;;;;;;5.63;71.97;98564.59;4195813;34;34043;-91
2021/12/25 06:17:09;;;;;;;7.43;4.00;;;;;;;5.43;72.65;98574.22;4212631;34;34424;-90
2021/12/25 06:19:38;;;;;;;6.45;3.72;;;;;;;5.83;71.78;98569.50;4201615;34;32431;-89
2021/12/25 06:22:13;;;;;;;6.32;5.03;;;;;;;5.62;72.63;98562.88;4212907;34;33993;-89
2021/12/25 06:24:44;;;;;;;11.82;5.05;;;;;;;5.49;73.09;98571.59;4197614;34;33001;-91
2021/12/25 06:27:13;;;;;;;12.77;6.45;;;;;;;5.67;72.49;98580.84;4206920;34;33872;-89
2021/12/25 06:29:42;;;;;;;9.63;6.03;;;;;;;5.55;72.99;98576.66;4201168;34;33158;-89
2021/12/25 06:32:14;;;;;;;13.23;6.35;;;;;;;5.64;72.85;98586.03;4210286;34;34544;-88
2021/12/25 06:34:45;;;;;;;9.07;4.75;;;;;;;5.89;71.90;98589.16;4204749;34;34037;-90
2021/12/25 06:37:18;;;;;;;10.73;5.35;;;;;;;5.50;72.81;98599.03;4205748;34;34225;-88
2021/12/25 06:39:48;;;;;;;8.07;4.93;;;;;;;5.43;73.36;98603.38;4210035;34;34145;-89
2021/12/25 06:42:18;;;;;;;8.35;5.07;;;;;;;5.59;72.89;98595.50;4210490;34;33717;-90
2021/12/25 06:44:47;;;;;;;6.30;3.87;;;;;;;5.51;73.40;98601.59;4201106;34;33329;-88
2021/12/25 06:47:18;;;;;;;6.60;4.00;;;;;;;5.52;73.31;98602.44;4203325;34;34643;-89
2021/12/25 06:49:47;;;;;;;6.78;4.05;;;;;;;5.39;73.53;98606.84;4205165;34;33996;-91
2021/12/25 06:52:17;;;;;;;6.90;3.35;;;;;;;5.56;73.19;98614.41;4197725;34;32694;-89
2021/12/25 06:54:46;;;;;;;6.15;3.67;;;;;;;5.71;72.87;98605.66;4197394;34;33457;-89
2021/12/25 06:57:18;;;;;;;7.78;4.82;;;;;;;5.87;72.35;98608.91;4198581;34;34626;-90
2021/12/25 06:59:47;;;;;;;6.95;3.55;;;;;;;5.98;71.99;98613.09;4202242;34;34063;-88
2021/12/25 07:02:17;;;;;;;6.55;3.65;;;;;;;6.01;71.99;98612.19;4205066;34;35194;-89
2021/12/25 07:04:55;;;;;;;7.25;4.22;;;;;;;6.11;71.93;98618.09;4203182;34;34276;-89
2021/12/25 07:07:25;;;;;;;7.62;4.55;;;;;;;6.08;72.41;98618.12;4204599;34;35416;-90
2021/12/25 07:09:54;;;;;;;8.02;4.35;;;;;;;5.82;73.55;98624.41;4203359;34;33301;-89
2021/12/25 07:12:25;;;;;;;5.50;4.00;;;;;;;5.89;73.21;98641.47;4215633;34;34606;-89
2021/12/25 07:14:54;;;;;;;6.35;3.85;;;;;;;6.27;72.43;98636.78;4207587;34;34095;-89
2021/12/25 07:17:25;;;;;;;6.43;4.55;;;;;;;6.18;72.95;98638.59;4206972;34;33841;-89
2021/12/25 07:19:54;;;;;;;8.18;4.68;;;;;;;6.21;73.19;98640.31;4208813;34;34105;-89
2021/12/25 07:22:23;;;;;;;8.63;4.60;;;;;;;6.25;73.52;98636.78;4217631;34;34846;-91
2021/12/25 07:24:55;;;;;;;6.30;3.67;;;;;;;6.34;73.63;98631.53;4208447;34;33951;-89
2021/12/25 07:27:27;;;;;;;6.78;3.87;;;;;;;6.38;73.81;98640.94;4212995;34;33143;-90
2021/12/25 07:29:58;;;;;;;7.45;4.47;;;;;;;6.43;73.87;98634.84;4188097;34;33481;-89
2021/12/25 07:32:28;;;;;;;7.72;4.55;;;;;;;6.44;73.96;98641.72;4194248;34;34372;-90
2021/12/25 07:34:57;;;;;;;6.45;4.20;;;;;;;6.72;72.78;98632.72;4201879;34;33631;-90
2021/12/25 07:37:26;;;;;;;5.87;3.95;;;;;;;6.65;73.34;98625.97;4207443;34;34605;-90
2021/12/25 07:39:58;;;;;;;5.90;3.30;;;;;;;6.53;74.09;98637.28;4197869;34;35293;-90
2021/12/25 07:42:26;;;;;;;6.95;4.07;;;;;;;6.61;74.00;98638.03;4189278;34;34741;-90
2021/12/25 07:45:03;;;;;;;8.38;4.07;;;;;;;6.71;73.72;98643.91;4204370;34;33686;-89
2021/12/25 07:47:35;;;;;;;6.65;4.05;;;;;;;6.70;73.98;98642.22;4205967;34;34155;-91
2021/12/25 07:50:04;;;;;;;9.23;4.80;;;;;;;7.06;72.35;98645.13;4201273;34;33322;-90
2021/12/25 07:52:33;;;;;;;9.18;6.03;;;;;;;6.82;73.54;98644.59;4189917;34;36320;-89
2021/12/25 07:55:04;;;;;;;8.13;5.72;;;;;;;6.80;73.81;98651.50;4204678;34;33966;-90
2021/12/25 07:57:33;;;;;;;8.77;4.75;;;;;;;6.82;73.78;98654.91;4197170;34;33658;-91
2021/12/25 08:18:16;;;;;;;9.50;6.80;;;;;;;7.01;72.92;98645.19;4208205;33;33802;-89
2021/12/25 08:21:04;;;;;;;12.55;6.80;;;;;;;7.06;72.75;98652.84;4216454;33;34775;-89
2021/12/25 08:23:54;;;;;;;10.63;7.62;;;;;;;6.94;73.52;98651.31;4212012;33;34590;-89
2021/12/25 08:26:34;;;;;;;12.98;7.40;;;;;;;7.09;73.28;98651.94;4222017;33;33014;-89
2021/12/25 08:29:04;;;;;;;10.13;5.50;;;;;;;7.20;72.91;98640.59;4223668;33;33767;-90
2021/12/25 08:31:40;;;;;;;9.07;5.70;;;;;;;7.67;70.55;98656.97;4215365;33;34434;-89
2021/12/25 08:34:12;;;;;;;7.72;4.55;;;;;;;7.70;70.39;98653.47;4215083;33;33799;-90
2021/12/25 08:36:43;;;;;;;8.38;4.55;;;;;;;7.50;71.01;98647.84;4211093;33;34630;-89
2021/12/25 08:39:12;;;;;;;9.63;4.47;;;;;;;7.02;73.47;98633.97;4213735;33;33426;-91
2021/12/25 08:41:41;;;;;;;11.18;5.70;;;;;;;6.93;74.28;98626.38;4219056;33;33901;-90
2021/12/25 08:44:30;;;;;;;10.85;6.93;;;;;;;7.09;74.17;98627.00;4213020;33;33617;-90
2021/12/25 08:46:59;;;;;;;9.95;5.80;;;;;;;7.23;73.92;98619.88;4221962;33;33246;-91
2021/12/25 08:49:30;;;;;;;9.07;5.03;;;;;;;7.31;74.13;98619.75;4222810;33;33369;-90
2021/12/25 08:52:01;;;;;;;8.40;5.30;;;;;;;7.56;73.08;98617.59;4209303;33;32872;-89
2021/12/25 08:54:30;;;;;;;11.10;6.20;;;;;;;7.55;73.48;98631.38;4211107;33;33445;-89
2021/12/25 08:57:01;;;;;;;6.80;4.40;;;;;;;7.50;74.37;98620.28;4211013;33;33261;-91
2021/12/25 08:59:30;;;;;;;11.73;6.55;;;;;;;7.55;74.64;98609.88;4215778;33;33835;-89
2021/12/25 09:01:59;;;;;;;11.45;6.93;;;;;;;7.64;74.78;98604.56;4223470;33;34070;-90
2021/12/25 09:04:28;;;;;;;13.75;7.18;;;;;;;7.76;74.66;98595.72;4222135;33;34519;-90
2021/12/25 09:06:58;;;;;;;14.85;8.70;;;;;;;7.97;73.57;98617.69;4202120;33;32661;-88
2021/12/25 09:09:27;;;;;;;12.52;9.35;;;;;;;8.26;71.95;98632.59;4223967;33;35522;-89
2021/12/25 09:11:55;;;;;;;15.85;8.75;;;;;;;8.41;70.58;98634.03;4222383;33;33661;-89
2021/12/25 09:14:24;;;;;;;12.77;8.77;;;;;;;8.25;71.32;98634.31;4217786;33;32518;-90
2021/12/25 09:16:54;;;;;;;10.60;6.87;;;;;;;8.21;71.72;98643.00;4220575;33;33144;-89
2021/12/25 09:19:22;;;;;;;9.95;5.87;;;;;;;8.16;72.22;98628.50;4226373;33;34673;-89
2021/12/25 09:21:52;;;;;;;10.70;7.05;;;;;;;8.29;71.93;98620.47;4225887;33;35088;-90
2021/12/25 09:24:22;;;;;;;11.27;6.32;;;;;;;8.24;72.49;98616.25;4237627;33;34266;-89
2021/12/25 09:26:50;;;;;;;9.88;6.55;;;;;;;8.26;72.88;98619.66;4233142;33;33337;-89
2021/12/25 09:29:19;;;;;;;9.45;5.60;;;;;;;8.21;73.73;98611.16;4232752;33;33803;-89
2021/12/25 09:31:49;;;;;;;11.80;7.68;;;;;;;8.29;73.95;98611.88;4235637;33;35254;-90
2021/12/25 09:34:17;;;;;;;10.20;6.12;;;;;;;8.43;73.93;98611.59;4240304;33;35318;-89
2021/12/25 09:36:47;;;;;;;10.45;6.07;;;;;;;8.57;73.68;98604.38;4238145;33;34248;-89
2021/12/25 09:39:16;;;;;;;9.32;5.85;;;;;;;8.54;74.42;98605.31;4230934;33;32360;-89
2021/12/25 09:41:48;;;;;;;;;;;;;;;8.84;73.53;98604.63;4236149;33;34157;-91
2021/12/25 09:44:19;;;;;;;8.20;5.35;;;;;;;8.82;74.17;98599.50;4236437;33;33821;-88
2021/12/25 09:46:48;;;;;;;;;;;;;;;8.94;73.81;98594.03;4236550;33;34306;-89
2021/12/25 09:49:17;;;;;;;10.27;5.62;;;;;;;9.10;73.34;98602.25;4226616;33;34022;-90
2021/12/25 09:51:46;;;;;;;8.95;6.32;;;;;;;9.14;73.46;98601.31;4227702;33;33728;-89
2021/12/25 09:54:18;;;;;;;15.07;7.03;;;;;;;9.17;73.77;98606.41;4237066;33;33297;-89
2021/12/25 09:56:51;;;;;;;10.35;5.53;;;;;;;9.23;73.70;98596.78;4236374;33;33485;-89
2021/12/25 09:59:20;;;;;;;8.82;5.22;;;;;;;9.45;72.81;98597.06;4235298;33;33840;-91
2021/12/25 10:01:52;;;;;;;9.27;5.57;;;;;;;9.54;71.76;98594.25;4230897;33;34091;-88
2021/12/25 10:04:34;;;;;;;9.10;4.72;;;;;;;9.63;70.27;98601.78;4230370;33;33795;-89
2021/12/25 10:07:14;;;;;;;9.05;5.60;;;;;;;9.46;70.80;98591.03;4227412;33;33304;-88
2021/12/25 10:09:43;;;;;;;11.93;5.25;;;;;;;9.29;72.26;98594.91;4236936;33;33716;-89
2021/12/25 10:12:16;;;;;;;7.90;4.37;;;;;;;9.58;71.73;98599.31;4234068;33;34452;-90
2021/12/25 10:14:54;;;;;;;7.12;3.72;;;;;;;9.90;69.34;98594.97;4226541;33;34440;-90
2021/12/25 10:17:24;;;;;;;7.10;3.50;;;;;;;9.65;70.31;98597.41;4230440;33;33314;-89
2021/12/25 10:20:11;;;;;;;7.80;4.18;;;;;;;9.59;71.69;98598.44;4227087;33;33803;-89
2021/12/25 10:22:58;;;;;;;5.65;3.00;;;;;;;9.77;71.73;98594.47;4233833;33;34301;-89
2021/12/25 10:25:32;;;;;;;7.43;4.37;;;;;;;10.03;69.84;98598.09;4235035;33;34705;-89
2021/12/25 10:28:06;;;;;;;5.22;3.42;;;;;;;10.14;70.10;98590.84;4231203;33;34212;-89
2021/12/25 10:30:49;;;;;;;6.85;4.10;;;;;;;10.34;69.76;98592.91;4230123;33;34511;-90
2021/12/25 10:33:38;;;;;;;6.12;3.97;;;;;;;10.42;70.27;98596.09;4227073;33;34110;-90
2021/12/25 10:36:09;;;;;;;5.75;3.08;;;;;;;10.61;68.72;98587.78;4223610;33;34510;-90
2021/12/25 10:38:38;;;;;;;7.73;4.23;;;;;;;10.60;68.28;98591.25;4227284;33;33169;-89
2021/12/25 10:41:20;;;;;;;6.57;4.10;;;;;;;11.01;65.59;98584.75;4231282;33;33868;-90
2021/12/25 10:44:11;;;;;;;8.00;4.25;;;;;;;11.21;64.47;98583.22;4230628;33;37021;-89
2021/12/25 10:46:48;;;;;;;7.22;4.35;;;;;;;11.17;64.60;98576.47;4226126;33;33706;-90
2021/12/25 10:49:17;;;;;;;5.37;2.72;;;;;;;10.86;66.46;98573.13;4228052;33;34222;-90
2021/12/25 10:51:47;;;;;;;6.85;4.10;;;;;;;10.66;67.35;98571.16;4227617;33;33858;-90
2021/12/25 10:54:18;;;;;;;8.40;3.95;;;;;;;10.94;67.31;98577.22;4231751;33;33679;-89
2021/12/25 10:56:49;;;;;;;4.82;2.70;;;;;;;10.72;67.53;98574.47;4221644;33;78672;-90
2021/12/25 10:59:19;;;;;;;3.42;2.05;;;;;;;10.91;66.47;98572.97;4223505;33;33699;-89
2021/12/25 11:01:51;;;;;;;3.45;2.08;;;;;;;10.96;66.29;98568.47;4224014;33;34959;-89
2021/12/25 11:04:31;;;;;;;3.80;2.20;;;;;;;11.20;64.83;98561.63;4232880;33;33521;-90
2021/12/25 11:07:12;;;;;;;5.60;3.03;;;;;;;11.39;63.85;98563.59;4228606;33;34504;-90
2021/12/25 11:09:41;;;;;;;6.10;2.60;;;;;;;11.47;63.93;98553.78;4227247;33;34042;-90
2021/12/25 11:12:18;;;;;;;3.33;1.92;;;;;;;11.68;62.55;98552.19;4228280;33;32358;-89
2021/12/25 11:15:09;;;;;;;5.35;3.05;;;;;;;11.26;64.92;98552.78;4226447;33;34803;-90
2021/12/25 11:17:40;;;;;;;4.15;2.65;;;;;;;11.41;63.86;98546.22;4228918;33;32859;-90
2021/12/25 11:20:17;;;;;;;3.42;2.12;;;;;;;11.62;62.67;98544.59;4230728;33;32636;-90
2021/12/25 11:22:49;;;;;;;3.83;2.25;;;;;;;11.62;63.42;98549.78;4229183;33;32432;-90
2021/12/25 11:25:18;;;;;;;;;;;;;;;11.36;64.91;98536.00;4230544;33;32261;-91
2021/12/25 11:27:48;;;;;;;3.17;1.90;;;;;;;11.41;64.46;98534.09;4232036;33;34666;-90
2021/12/25 11:30:20;;;;;;;3.05;1.70;;;;;;;11.45;64.20;98525.28;4226519;33;33877;-91
2021/12/25 11:32:50;;;;;;;3.67;2.10;;;;;;;11.45;64.17;98517.50;4228614;33;34343;-89
2021/12/25 11:35:20;;;;;;;4.32;2.97;;;;;;;11.75;62.91;98522.47;4225506;33;34099;-90
2021/12/25 11:37:51;;;;;;;3.05;2.12;;;;;;;11.36;64.59;98517.81;4226521;33;33404;-89
2021/12/25 11:40:29;;;;;;;3.67;1.85;;;;;;;11.55;63.91;98512.81;4227718;33;33178;-90
2021/12/25 11:43:01;;;;;;;2.58;1.85;;;;;;;11.38;64.50;98512.56;4232545;33;34835;-88
2021/12/25 11:45:34;;;;;;;3.03;1.90;;;;;;;11.23;64.54;98499.19;4228925;33;35200;-89
2021/12/25 11:48:13;;;;;;;2.03;1.80;;;;;;;11.28;64.43;98499.91;4223661;33;33829;-89
2021/12/25 11:50:46;;;;;;;3.50;1.65;;;;;;;11.82;63.08;98500.56;4226515;33;33447;-91
2021/12/25 11:53:23;;;;;;;1.92;1.35;;;;;;;11.70;63.40;98486.28;4228151;33;33670;-89
2021/12/25 11:58:59;;;;;;;3.28;1.95;;;;;;;11.71;62.95;98492.31;4227217;33;33885;-90
2021/12/25 12:01:32;;;;;;;2.60;1.67;;;;;;;11.53;63.53;98488.66;4233953;33;33793;-89
2021/12/25 12:04:03;;;;;;;2.62;1.42;;;;;;;11.62;63.10;98490.91;4233512;33;33608;-91
2021/12/25 12:07:01;;;;;;;3.10;1.90;;;;;;;11.69;62.71;98476.81;4230307;33;33968;-90
2021/12/25 12:09:53;;;;;;;2.75;1.58;;;;;;;11.69;63.11;98484.59;4230175;33;33628;-90
2021/12/25 12:12:26;;;;;;;2.15;1.30;;;;;;;11.79;62.88;98489.44;4229898;33;33467;-89
2021/12/25 12:15:14;;;;;;;5.53;1.77;;;;;;;11.74;63.36;98490.47;4229537;33;33985;-89
2021/12/25 12:17:50;;;;;;;3.60;2.08;;;;;;;11.80;63.50;98491.97;4228508;33;32678;-90
2021/12/25 12:20:38;;;;;;;2.90;1.87;;;;;;;11.87;63.61;98492.63;4234312;33;33413;-91
2021/12/25 12:23:34;;;;;;;5.03;1.52;;;;;;;11.91;63.42;98495.06;4233252;33;33238;-89
2021/12/25 12:26:07;;;;;;;3.10;1.50;;;;;;;11.95;63.55;98496.62;4232757;33;33602;-90
2021/12/25 12:28:47;;;;;;;2.92;1.83;;;;;;;11.93;63.38;98482.81;4228469;33;33979;-89
2021/12/25 12:31:36;;;;;;;3.13;2.80;;;;;;;12.01;63.07;98489.50;4229592;33;33980;-90
2021/12/25 12:34:34;;;;;;;3.42;1.73;;;;;;;11.97;63.18;98487.94;4227807;33;34000;-90
2021/12/25 12:37:38;;;;;;;5.18;2.60;;;;;;;11.92;63.39;98491.53;4226885;33;34503;-89
2021/12/25 12:40:23;;;;;;;3.85;1.90;;;;;;;11.93;63.54;98487.19;4198904;34;36459;-91
2021/12/25 12:42:57;;;;;;;2.55;1.77;;;;;;;11.88;63.83;98484.75;4199860;34;33695;-90
2021/12/25 12:45:28;;;;;;;3.25;1.65;;;;;;;11.88;64.12;98486.50;4198213;34;34408;-90
2021/12/25 12:48:27;;;;;;;2.17;1.45;;;;;;;11.88;64.15;98489.97;4199149;34;33933;-90
2021/12/25 12:50:58;;;;;;;4.05;2.47;;;;;;;11.94;64.04;98491.50;4198882;34;34269;-90
2021/12/25 12:53:39;;;;;;;3.67;2.33;;;;;;;11.82;64.32;98494.53;4193018;34;33565;-88
2021/12/25 12:56:09;;;;;;;6.32;3.25;;;;;;;11.88;64.30;98487.34;4198119;34;33284;-91
2021/12/25 12:58:38;;;;;;;6.70;3.50;;;;;;;11.87;64.48;98490.03;4198836;34;33256;-89
2021/12/25 13:01:11;;;;;;;5.93;3.25;;;;;;;11.85;64.62;98491.81;4195580;34;35018;-90
2021/12/25 13:15:31;;;;;;;6.12;3.20;;;;;;;11.87;64.86;98488.28;4133075;34;34800;-89
2021/12/25 14:17:58;;;;;;;8.10;4.12;;;;;;;11.03;65.63;98493.88;4071607;29;35065;-91
2021/12/25 14:20:28;;;;;;;7.40;3.97;;;;;;;11.16;65.16;98487.34;4111625;34;33931;-89
2021/12/25 14:23:02;;;;;;;6.15;3.55;;;;;;;11.16;65.62;98494.28;4116089;34;33396;-89
2021/12/25 14:25:35;;;;;;;9.45;4.05;;;;;;;11.20;65.51;98494.13;4111004;34;34002;-89
2021/12/25 14:28:08;;;;;;;9.00;4.72;;;;;;;10.99;66.02;98497.47;4117328;34;34027;-90
2021/12/25 14:30:42;;;;;;;6.90;4.07;;;;;;;10.81;66.49;98504.12;4108139;34;36350;-89